Edmonds, Washington
Current Conditions -  °F | °C
As of 11:53 PM on Monday 20 Oct 2014 (Local Time) from KPAE Reporting Station
Broken Clouds Broken Clouds  
Wind Chill: 54°   Ceiling: 5500
Heat Index: 54°   Visibility: 10mi
Dew Point: 52°   Wind: 10mph
Humidity: 93%   Direction: 170°S
Pressure: 29.8"   Gusts: NA
Location:  47.81°N, 122.37°W
Report Text: KPAE 210653Z AUTO 17009KT 10SM FEW015 SCT048 BKN055 12/11 A2980 RMK AO2 RAE13 SLP090 P0001 T01220111
Loading
Personal Weather Stations






























Interactive Weather Map
Tropical Storm Tracking
New forecast layout! Learn more

10-Day Weather Forecast

Advertisements
Track Severe Weather on mobile